createdAt,value
2017-12-12T00:01:55.019Z,7.30
2017-12-12T00:04:23.261Z,7.40
2017-12-12T00:06:50.764Z,7.30
2017-12-12T00:09:19.012Z,7.30
2017-12-12T00:11:46.508Z,7.30
2017-12-12T00:14:13.988Z,7.30
2017-12-12T00:16:41.484Z,7.30
2017-12-12T00:19:08.961Z,7.30
2017-12-12T00:21:36.456Z,7.30
2017-12-12T00:24:03.931Z,7.30
2017-12-12T00:26:31.424Z,7.20
2017-12-12T00:28:58.905Z,7.30
2017-12-12T00:31:26.400Z,7.30
2017-12-12T00:33:53.875Z,7.30
2017-12-12T00:36:21.373Z,7.30
2017-12-12T00:38:48.843Z,7.30
2017-12-12T00:41:16.339Z,7.30
2017-12-12T00:43:43.815Z,7.30
2017-12-12T00:46:11.309Z,7.30
2017-12-12T00:48:39.556Z,7.30
2017-12-12T00:51:07.051Z,7.20
2017-12-12T00:53:34.533Z,7.20
2017-12-12T00:56:02.795Z,7.20
2017-12-12T00:58:30.275Z,7.20
2017-12-12T01:00:57.759Z,7.20
2017-12-12T01:03:26.028Z,7.20
2017-12-12T01:05:53.504Z,7.20
2017-12-12T01:08:21.004Z,7.30
2017-12-12T01:10:48.488Z,7.20
2017-12-12T01:13:15.995Z,7.10
2017-12-12T01:15:43.475Z,7.10
2017-12-12T01:18:10.975Z,7.10
2017-12-12T01:20:39.215Z,7.10
2017-12-12T01:23:06.742Z,7.10
2017-12-12T01:25:34.219Z,7.20
2017-12-12T01:28:01.712Z,7.10
2017-12-12T01:30:29.192Z,7.20
2017-12-12T01:32:56.683Z,7.10
2017-12-12T01:35:24.160Z,7.00
2017-12-12T01:37:51.656Z,7.00
2017-12-12T01:40:19.900Z,6.90
2017-12-12T01:42:47.413Z,6.80
2017-12-12T01:45:15.664Z,6.90
2017-12-12T01:47:43.168Z,6.90
2017-12-12T01:50:11.408Z,6.90
2017-12-12T01:52:38.908Z,6.80
2017-12-12T01:55:06.383Z,6.80
2017-12-12T01:57:33.876Z,6.70
2017-12-12T02:00:01.349Z,6.60
2017-12-12T02:02:28.852Z,6.60
2017-12-12T02:04:56.327Z,6.60
2017-12-12T02:07:23.833Z,6.60
2017-12-12T02:09:51.346Z,6.60
2017-12-12T02:12:19.580Z,6.50
2017-12-12T02:14:47.076Z,6.40
2017-12-12T02:17:15.336Z,6.60
2017-12-12T02:19:42.804Z,6.50
2017-12-12T02:22:10.328Z,6.40
2017-12-12T02:24:37.804Z,6.30
2017-12-12T02:27:05.291Z,6.30
2017-12-12T02:29:32.772Z,6.20
2017-12-12T02:32:00.267Z,6.20
2017-12-12T02:34:27.749Z,6.10
2017-12-12T02:36:56.011Z,5.80
2017-12-12T02:39:23.484Z,5.80
2017-12-12T02:41:50.999Z,5.80
2017-12-12T02:44:18.476Z,5.70
2017-12-12T02:46:45.972Z,5.60
2017-12-12T02:49:13.446Z,5.60
2017-12-12T02:51:40.953Z,5.60
2017-12-12T02:54:09.191Z,5.60
2017-12-12T02:56:37.455Z,5.60
2017-12-12T02:59:04.924Z,5.60
2017-12-12T03:01:32.424Z,5.60
2017-12-12T03:03:59.892Z,5.60
2017-12-12T03:06:27.372Z,5.50
2017-12-12T03:08:54.871Z,5.50
2017-12-12T03:11:22.349Z,5.40
2017-12-12T03:13:50.611Z,5.30
2017-12-12T03:16:18.088Z,5.20
2017-12-12T03:18:45.587Z,5.30
2017-12-12T03:21:13.827Z,5.40
2017-12-12T03:23:41.315Z,5.30
2017-12-12T03:26:08.785Z,5.40
2017-12-12T03:28:36.285Z,5.20
2017-12-12T03:31:04.532Z,5.30
2017-12-12T03:33:32.028Z,5.30
2017-12-12T03:36:00.304Z,5.20
2017-12-12T03:38:27.805Z,5.10
2017-12-12T03:40:56.047Z,5.00
2017-12-12T03:43:23.551Z,5.00
2017-12-12T03:45:51.798Z,5.00
2017-12-12T03:48:19.348Z,4.90
2017-12-12T03:50:46.827Z,4.90
2017-12-12T03:53:14.336Z,4.80
2017-12-12T03:55:41.816Z,4.80
2017-12-12T03:58:09.312Z,4.70
2017-12-12T04:00:36.787Z,4.60
2017-12-12T04:03:04.287Z,4.60
2017-12-12T04:05:31.764Z,4.60
2017-12-12T04:07:59.263Z,4.60
2017-12-12T04:10:26.736Z,4.60
2017-12-12T04:12:55.000Z,4.60
2017-12-12T04:15:22.479Z,4.50
2017-12-12T04:17:49.956Z,4.50
2017-12-12T04:20:17.460Z,4.50
2017-12-12T04:22:44.936Z,4.50
2017-12-12T04:25:12.447Z,4.50
2017-12-12T04:27:39.927Z,4.60
2017-12-12T04:30:07.428Z,4.60
2017-12-12T04:32:35.668Z,4.80
2017-12-12T04:35:03.163Z,4.80
2017-12-12T04:37:30.635Z,4.80
2017-12-12T04:39:58.128Z,4.80
2017-12-12T04:42:26.360Z,4.70
2017-12-12T04:44:53.860Z,4.60
2017-12-12T04:47:21.341Z,4.70
2017-12-12T04:49:49.605Z,4.70
2017-12-12T04:52:17.075Z,4.70
2017-12-12T04:54:44.567Z,4.70
2017-12-12T04:57:12.811Z,4.70
2017-12-12T04:59:40.304Z,4.70
2017-12-12T05:02:07.776Z,4.80
2017-12-12T05:04:35.280Z,4.80
2017-12-12T05:07:02.756Z,4.70
2017-12-12T05:09:30.247Z,4.80
2017-12-12T05:11:57.800Z,4.80
2017-12-12T05:14:25.280Z,4.70
2017-12-12T05:16:52.792Z,4.60
2017-12-12T05:19:20.275Z,4.60
2017-12-12T05:21:47.776Z,4.50
2017-12-12T05:24:15.247Z,4.70
2017-12-12T05:26:42.747Z,4.70
2017-12-12T05:29:10.228Z,4.80
2017-12-12T05:31:37.734Z,4.80
2017-12-12T05:34:05.974Z,4.80
2017-12-12T05:36:33.468Z,4.80
2017-12-12T05:39:00.948Z,4.80
2017-12-12T05:41:28.448Z,4.80
2017-12-12T05:43:55.928Z,4.80
2017-12-12T05:46:23.419Z,4.80
2017-12-12T05:48:50.920Z,4.90
2017-12-12T05:51:18.414Z,4.90
2017-12-12T05:53:46.652Z,4.90
2017-12-12T05:56:14.151Z,4.80
2017-12-12T05:58:41.647Z,4.90
2017-12-12T06:01:09.915Z,4.90
2017-12-12T06:03:37.403Z,4.80
2017-12-12T06:06:05.713Z,4.90
2017-12-12T06:08:33.195Z,4.80
2017-12-12T06:11:00.700Z,4.90
2017-12-12T06:13:28.171Z,4.90
2017-12-12T06:15:55.648Z,5.00
2017-12-12T06:18:37.378Z,4.90
2017-12-12T06:21:05.624Z,5.00
2017-12-12T06:23:33.128Z,4.90
2017-12-12T06:26:01.380Z,5.00
2017-12-12T06:28:28.876Z,4.90
2017-12-12T06:30:56.351Z,4.90
2017-12-12T06:33:23.852Z,5.00
2017-12-12T06:35:51.326Z,4.90
2017-12-12T06:38:18.815Z,4.90
2017-12-12T06:40:46.291Z,4.90
2017-12-12T06:43:13.792Z,5.00
2017-12-12T06:45:41.263Z,4.90
2017-12-12T06:48:08.759Z,5.00
2017-12-12T06:50:36.999Z,5.00
2017-12-12T06:53:04.500Z,5.00
2017-12-12T06:55:32.752Z,4.90
2017-12-12T06:58:00.308Z,4.90
2017-12-12T07:00:27.735Z,5.00
2017-12-12T07:02:55.999Z,4.90
2017-12-12T07:05:23.476Z,4.90
2017-12-12T07:07:50.972Z,5.00
2017-12-12T07:10:19.208Z,5.00
2017-12-12T07:12:46.695Z,5.00
2017-12-12T07:15:14.176Z,5.10
2017-12-12T07:17:41.668Z,5.00
2017-12-12T07:20:09.909Z,5.00
2017-12-12T07:22:37.408Z,5.00
2017-12-12T07:25:04.913Z,5.00
2017-12-12T07:27:32.418Z,5.20
2017-12-12T07:29:59.887Z,5.10
2017-12-12T07:32:27.380Z,5.10
2017-12-12T07:34:54.876Z,5.00
2017-12-12T07:37:23.155Z,4.90
2017-12-12T07:39:50.647Z,4.80
2017-12-12T07:42:18.127Z,4.90
2017-12-12T07:44:45.628Z,4.90
2017-12-12T07:47:13.104Z,5.00
2017-12-12T07:49:40.595Z,5.00
2017-12-12T07:52:08.070Z,4.90
2017-12-12T07:54:35.568Z,5.00
2017-12-12T07:57:03.040Z,5.00
2017-12-12T07:59:30.531Z,5.00
2017-12-12T08:01:58.917Z,5.00
2017-12-12T08:04:26.416Z,5.00
2017-12-12T08:06:53.895Z,4.90
2017-12-12T08:09:21.391Z,4.90
2017-12-12T08:11:49.631Z,4.80
2017-12-12T08:14:17.132Z,4.70
2017-12-12T08:16:44.611Z,4.80
2017-12-12T08:19:12.104Z,4.80
2017-12-12T08:21:39.580Z,4.80
2017-12-12T08:24:07.076Z,4.80
2017-12-12T08:26:34.547Z,4.90
2017-12-12T08:29:02.041Z,4.80
2017-12-12T08:31:29.517Z,4.70
2017-12-12T08:33:57.012Z,4.70
2017-12-12T08:36:25.323Z,4.60
2017-12-12T08:38:52.816Z,4.60
2017-12-12T08:41:20.295Z,4.70
2017-12-12T08:43:47.795Z,4.60
2017-12-12T08:46:15.279Z,4.60
2017-12-12T08:48:43.539Z,4.50
2017-12-12T08:51:11.003Z,4.40
2017-12-12T08:53:38.499Z,4.40
2017-12-12T08:56:06.743Z,4.40
2017-12-12T08:58:34.236Z,4.40
2017-12-12T09:01:01.704Z,4.30
2017-12-12T09:03:29.196Z,4.40
2017-12-12T09:05:56.663Z,4.40
2017-12-12T09:08:24.163Z,4.50
2017-12-12T09:10:51.635Z,4.50
2017-12-12T09:13:19.135Z,4.50
2017-12-12T09:15:46.627Z,4.50
2017-12-12T09:18:14.125Z,4.50
2017-12-12T09:20:42.372Z,4.50
2017-12-12T09:23:09.868Z,4.40
2017-12-12T09:25:37.344Z,4.60
2017-12-12T09:28:04.855Z,4.60
2017-12-12T09:30:32.335Z,4.70
2017-12-12T09:32:59.840Z,4.80
2017-12-12T09:35:27.332Z,4.80
2017-12-12T09:37:55.588Z,4.90
2017-12-12T09:40:23.076Z,4.80
2017-12-12T09:42:50.553Z,4.80
2017-12-12T09:45:18.809Z,4.80
2017-12-12T09:47:46.280Z,4.80
2017-12-12T09:50:13.779Z,4.80
2017-12-12T09:52:41.247Z,4.80
2017-12-12T09:55:08.744Z,4.90
2017-12-12T09:57:36.988Z,4.90
2017-12-12T10:00:04.492Z,4.90
2017-12-12T10:02:32.731Z,5.00
2017-12-12T10:05:00.222Z,4.90
2017-12-12T10:07:27.691Z,5.10
2017-12-12T10:09:55.180Z,5.20
2017-12-12T10:12:23.426Z,5.50
2017-12-12T10:14:50.918Z,5.40
2017-12-12T10:17:18.456Z,5.60
2017-12-12T10:19:45.960Z,5.60
2017-12-12T10:22:13.432Z,5.70
2017-12-12T10:24:40.924Z,5.70
2017-12-12T10:27:09.163Z,5.90
2017-12-12T10:29:36.664Z,5.90
2017-12-12T10:32:04.369Z,6.20
2017-12-12T10:34:31.887Z,6.30
2017-12-12T10:36:59.364Z,6.40
2017-12-12T10:39:26.848Z,6.50
2017-12-12T10:41:54.316Z,6.60
2017-12-12T10:44:21.816Z,6.80
2017-12-12T10:46:50.100Z,7.00
2017-12-12T10:49:18.392Z,7.10
2017-12-12T10:51:46.628Z,7.10
2017-12-12T10:54:14.116Z,7.10
2017-12-12T10:56:41.673Z,7.30
2017-12-12T10:59:09.172Z,7.40
2017-12-12T11:01:36.649Z,7.30
2017-12-12T11:04:04.903Z,7.20
2017-12-12T11:06:32.376Z,7.20
2017-12-12T11:08:59.877Z,7.20
2017-12-12T11:11:28.120Z,7.00
2017-12-12T11:13:55.620Z,6.90
2017-12-12T11:16:23.107Z,6.90
2017-12-12T11:18:51.373Z,6.50
2017-12-12T11:21:18.854Z,6.40
2017-12-12T11:23:47.123Z,6.30
2017-12-12T11:26:14.597Z,6.20
2017-12-12T11:28:42.097Z,6.10
2017-12-12T11:31:10.352Z,6.10
2017-12-12T11:33:37.842Z,6.10
2017-12-12T11:36:05.319Z,6.00
2017-12-12T11:38:33.583Z,6.00
2017-12-12T11:41:01.058Z,6.00
2017-12-12T11:43:28.608Z,6.00
2017-12-12T11:45:56.059Z,6.00
2017-12-12T11:48:23.539Z,6.00
2017-12-12T11:50:51.040Z,5.90
2017-12-12T11:53:18.512Z,5.90
2017-12-12T11:55:46.032Z,5.80
2017-12-12T11:58:13.508Z,5.80
2017-12-12T12:00:41.005Z,5.70
2017-12-12T12:03:09.077Z,5.70
2017-12-12T12:05:36.592Z,5.80
2017-12-12T12:08:04.831Z,5.80
2017-12-12T12:10:32.325Z,5.80
2017-12-12T12:12:59.803Z,5.90
2017-12-12T12:15:27.296Z,5.70
2017-12-12T12:17:55.535Z,5.80
2017-12-12T12:20:23.032Z,5.70
2017-12-12T12:22:50.507Z,5.80
2017-12-12T12:25:17.999Z,5.80
2017-12-12T12:27:46.243Z,5.60
2017-12-12T12:30:13.744Z,5.60
2017-12-12T12:32:42.004Z,5.60
2017-12-12T12:35:09.508Z,5.60
2017-12-12T12:37:37.752Z,5.60
2017-12-12T12:40:05.251Z,5.60
2017-12-12T12:42:32.742Z,5.60
2017-12-12T12:45:00.256Z,5.60
2017-12-12T12:47:27.741Z,5.70
2017-12-12T12:49:55.237Z,5.60
2017-12-12T12:52:22.716Z,5.60
2017-12-12T12:54:50.980Z,5.70
2017-12-12T12:57:18.468Z,5.70
2017-12-12T12:59:46.739Z,5.60
2017-12-12T13:02:14.229Z,5.60
2017-12-12T13:04:42.500Z,5.70
2017-12-12T13:07:09.967Z,5.70
2017-12-12T13:09:37.463Z,5.70
2017-12-12T13:12:05.695Z,5.70
2017-12-12T13:14:33.187Z,5.70
2017-12-12T13:17:00.664Z,5.80
2017-12-12T13:19:28.159Z,5.80
2017-12-12T13:21:56.402Z,5.80
2017-12-12T13:24:23.891Z,5.80
2017-12-12T13:26:51.367Z,5.80
2017-12-12T13:29:18.864Z,5.80
2017-12-12T13:31:47.108Z,5.70
2017-12-12T13:34:14.604Z,5.60
2017-12-12T13:36:42.079Z,5.70
2017-12-12T13:39:10.340Z,5.60
2017-12-12T13:41:37.818Z,5.50
2017-12-12T13:44:05.315Z,5.60
2017-12-12T13:46:33.567Z,5.60
2017-12-12T13:49:01.064Z,5.60
2017-12-12T13:51:29.299Z,5.60
2017-12-12T13:53:56.798Z,5.60
2017-12-12T13:56:24.275Z,5.60
2017-12-12T13:58:51.756Z,5.70
2017-12-12T14:01:19.252Z,5.60
2017-12-12T14:03:46.726Z,5.60
2017-12-12T14:06:14.224Z,5.50
2017-12-12T14:08:41.704Z,5.50
2017-12-12T14:11:09.203Z,5.50
2017-12-12T14:13:36.671Z,5.50
2017-12-12T14:16:04.163Z,5.50
2017-12-12T14:18:32.404Z,5.40
2017-12-12T14:20:59.904Z,5.40
2017-12-12T14:23:28.152Z,5.40
2017-12-12T14:25:55.644Z,5.40
2017-12-12T14:28:23.127Z,5.40
2017-12-12T14:30:50.617Z,5.30
2017-12-12T14:33:18.860Z,5.30
2017-12-12T14:35:46.360Z,5.30
2017-12-12T14:38:13.842Z,5.30
2017-12-12T14:40:42.108Z,5.40
2017-12-12T14:43:09.584Z,5.30
2017-12-12T14:45:37.076Z,5.30
2017-12-12T14:48:05.320Z,5.30
2017-12-12T14:50:32.817Z,5.30
2017-12-12T14:53:01.064Z,5.30
2017-12-12T14:55:28.569Z,5.30
2017-12-12T14:57:56.055Z,5.30
2017-12-12T15:00:23.572Z,5.40
2017-12-12T15:02:51.060Z,5.40
2017-12-12T15:05:18.572Z,5.40
2017-12-12T15:07:46.812Z,5.40
2017-12-12T15:10:14.315Z,5.40
2017-12-12T15:12:42.560Z,5.40
2017-12-12T15:15:10.055Z,5.30
2017-12-12T15:17:37.544Z,5.30
2017-12-12T15:20:05.049Z,5.30
2017-12-12T15:22:32.519Z,5.30
2017-12-12T15:25:00.012Z,5.30
2017-12-12T15:27:27.483Z,5.30
2017-12-12T15:29:54.980Z,5.20
2017-12-12T15:32:22.457Z,5.30
2017-12-12T15:34:49.955Z,5.20
2017-12-12T15:37:17.428Z,5.10
2017-12-12T15:39:44.923Z,5.10
2017-12-12T15:42:12.396Z,5.00
2017-12-12T15:44:39.888Z,5.10
2017-12-12T15:47:07.364Z,5.00
2017-12-12T15:49:34.860Z,5.00
2017-12-12T15:52:03.124Z,4.90
2017-12-12T15:54:30.623Z,4.90
2017-12-12T15:56:58.876Z,4.90
2017-12-12T15:59:26.379Z,4.90
2017-12-12T16:01:54.619Z,5.00
2017-12-12T16:04:22.123Z,4.90
2017-12-12T16:06:50.376Z,5.10
2017-12-12T16:09:17.847Z,5.00
2017-12-12T16:11:45.334Z,5.10
2017-12-12T16:14:12.816Z,5.00
2017-12-12T16:16:40.307Z,5.00
2017-12-12T16:19:08.549Z,4.90
2017-12-12T16:21:36.041Z,4.90
2017-12-12T16:24:03.528Z,4.90
2017-12-12T16:26:31.795Z,5.10
2017-12-12T16:28:59.271Z,5.00
2017-12-12T16:31:26.763Z,5.00
2017-12-12T16:33:55.007Z,5.00
2017-12-12T16:36:22.508Z,5.00
2017-12-12T16:38:49.988Z,5.00
2017-12-12T16:41:18.247Z,4.90
2017-12-12T16:43:45.733Z,4.90
2017-12-12T16:46:13.232Z,4.90
2017-12-12T16:48:40.704Z,4.80
2017-12-12T16:51:08.200Z,4.80
2017-12-12T16:53:35.680Z,4.70
2017-12-12T16:56:03.167Z,4.70
2017-12-12T16:58:30.643Z,4.70
2017-12-12T17:00:58.145Z,4.70
2017-12-12T17:03:26.384Z,4.70
2017-12-12T17:05:53.884Z,4.60
2017-12-12T17:08:21.365Z,4.70
2017-12-12T17:10:49.623Z,4.80
2017-12-12T17:13:17.099Z,4.70
2017-12-12T17:15:44.603Z,4.80
2017-12-12T17:18:12.080Z,4.60
2017-12-12T17:20:39.588Z,4.60
2017-12-12T17:23:07.064Z,4.60
2017-12-12T17:25:34.568Z,4.60
2017-12-12T17:28:02.809Z,4.30
2017-12-12T17:30:30.316Z,4.30
2017-12-12T17:32:57.787Z,4.30
2017-12-12T17:35:25.275Z,4.30
2017-12-12T17:37:53.511Z,4.20
2017-12-12T17:40:21.012Z,4.20
2017-12-12T17:42:48.488Z,4.30
2017-12-12T17:45:16.759Z,4.20
2017-12-12T17:47:44.232Z,4.10
2017-12-12T17:50:11.731Z,4.10
2017-12-12T17:52:39.218Z,4.00
2017-12-12T17:55:06.712Z,4.00
2017-12-12T17:57:34.189Z,3.80
2017-12-12T18:00:01.704Z,3.80
2017-12-12T18:02:29.951Z,3.90
2017-12-12T18:04:57.447Z,3.80
2017-12-12T18:07:24.923Z,3.80
2017-12-12T18:09:52.420Z,3.90
2017-12-12T18:12:19.887Z,3.80
2017-12-12T18:14:47.382Z,3.80
2017-12-12T18:17:14.879Z,3.80
2017-12-12T18:19:42.356Z,3.80
2017-12-12T18:22:09.849Z,3.80
2017-12-12T18:24:38.092Z,3.80
2017-12-12T18:27:05.613Z,3.70
2017-12-12T18:29:33.860Z,3.80
2017-12-12T18:32:01.360Z,3.70
2017-12-12T18:34:28.835Z,3.70
2017-12-12T18:36:57.101Z,3.70
2017-12-12T18:39:24.576Z,3.60
2017-12-12T18:41:52.063Z,3.70
2017-12-12T18:44:20.315Z,3.70
2017-12-12T18:46:47.811Z,3.60
2017-12-12T18:49:15.291Z,3.60
2017-12-12T18:51:43.561Z,3.60
2017-12-12T18:54:11.034Z,3.50
2017-12-12T18:56:38.548Z,3.50
2017-12-12T18:59:06.027Z,3.50
2017-12-12T19:01:33.544Z,3.50
2017-12-12T19:04:01.023Z,3.40
2017-12-12T19:06:28.519Z,3.50
2017-12-12T19:08:56.001Z,3.50
2017-12-12T19:11:23.499Z,3.40
2017-12-12T19:13:50.973Z,3.40
2017-12-12T19:16:18.471Z,3.40
2017-12-12T19:18:45.948Z,3.50
2017-12-12T19:21:14.213Z,3.50
2017-12-12T19:23:41.696Z,3.50
2017-12-12T19:26:09.196Z,3.60
2017-12-12T19:28:36.672Z,3.60
2017-12-12T19:31:04.171Z,3.50
2017-12-12T19:33:31.660Z,3.50
2017-12-12T19:35:59.161Z,3.40
2017-12-12T19:38:27.405Z,3.50
2017-12-12T19:40:54.923Z,3.40
2017-12-12T19:43:23.167Z,3.40
2017-12-12T19:45:50.671Z,3.40
2017-12-12T19:48:18.920Z,3.60
2017-12-12T19:50:46.411Z,3.50
2017-12-12T19:53:13.923Z,3.60
2017-12-12T19:55:41.428Z,3.60
2017-12-12T19:58:08.904Z,3.50
2017-12-12T20:00:36.383Z,3.40
2017-12-12T20:03:04.024Z,3.40
2017-12-12T20:05:31.528Z,3.40
2017-12-12T20:07:59.029Z,3.40
2017-12-12T20:10:26.510Z,3.50
2017-12-12T20:12:54.789Z,3.50
2017-12-12T20:15:22.282Z,3.40
2017-12-12T20:17:49.795Z,3.50
2017-12-12T20:20:17.271Z,3.40
2017-12-12T20:22:44.768Z,3.40
2017-12-12T20:25:12.246Z,3.50
2017-12-12T20:27:40.512Z,3.30
2017-12-12T20:30:07.996Z,3.20
2017-12-12T20:32:35.504Z,3.20
2017-12-12T20:35:02.979Z,3.20
2017-12-12T20:37:30.475Z,3.20
2017-12-12T20:39:57.955Z,3.20
2017-12-12T20:42:25.456Z,3.20
2017-12-12T20:44:53.698Z,3.10
2017-12-12T20:47:21.195Z,3.10
2017-12-12T20:49:48.671Z,3.20
2017-12-12T20:52:16.164Z,3.20
2017-12-12T20:54:44.408Z,3.10
2017-12-12T20:57:11.924Z,3.00
2017-12-12T20:59:40.173Z,3.00
2017-12-12T21:02:07.672Z,3.00
2017-12-12T21:04:35.150Z,3.00
2017-12-12T21:07:08.993Z,3.10
2017-12-12T21:09:36.467Z,3.00
2017-12-12T21:12:03.971Z,3.10
2017-12-12T21:14:31.456Z,3.10
2017-12-12T21:16:58.953Z,3.00
2017-12-12T21:19:27.200Z,3.10
2017-12-12T21:21:54.700Z,3.00
2017-12-12T21:24:22.948Z,3.10
2017-12-12T21:26:50.452Z,3.10
2017-12-12T21:29:18.712Z,3.20
2017-12-12T21:31:46.214Z,3.10
2017-12-12T21:34:14.451Z,3.20
2017-12-12T21:36:41.957Z,3.10
2017-12-12T21:39:09.438Z,3.20
2017-12-12T21:41:36.943Z,3.20
2017-12-12T21:44:04.428Z,3.20
2017-12-12T21:46:31.923Z,3.10
2017-12-12T21:48:59.399Z,3.10
2017-12-12T21:51:26.902Z,3.00
2017-12-12T21:53:55.148Z,3.10
2017-12-12T21:56:22.650Z,3.00
2017-12-12T21:58:50.132Z,2.80
2017-12-12T22:01:18.392Z,2.80
2017-12-12T22:03:45.864Z,2.70
2017-12-12T22:06:13.360Z,2.80
2017-12-12T22:08:41.625Z,2.80
2017-12-12T22:11:09.104Z,2.70
2017-12-12T22:13:36.600Z,2.80
2017-12-12T22:16:04.084Z,2.70
2017-12-12T22:18:31.580Z,2.70
2017-12-12T22:20:59.060Z,2.70
2017-12-12T22:23:26.555Z,2.60
2017-12-12T22:25:54.792Z,2.50
2017-12-12T22:28:22.296Z,2.50
2017-12-12T22:30:49.776Z,2.50
2017-12-12T22:33:17.282Z,2.60
2017-12-12T22:35:44.762Z,2.60
2017-12-12T22:38:12.259Z,2.60
2017-12-12T22:40:39.744Z,2.50
2017-12-12T22:43:07.235Z,2.60
2017-12-12T22:45:35.475Z,2.60
2017-12-12T22:48:02.988Z,2.50
2017-12-12T22:50:31.232Z,2.50
2017-12-12T22:52:58.732Z,2.50
2017-12-12T22:55:26.200Z,2.60
2017-12-12T22:57:53.791Z,2.50
2017-12-12T23:00:22.037Z,2.40
2017-12-12T23:02:49.535Z,2.40
2017-12-12T23:05:17.021Z,2.30
2017-12-12T23:07:45.288Z,2.30
2017-12-12T23:10:12.768Z,2.20
2017-12-12T23:12:40.277Z,2.20
2017-12-12T23:15:07.768Z,2.20
2017-12-12T23:17:35.272Z,2.30
2017-12-12T23:20:02.749Z,2.30
2017-12-12T23:22:30.243Z,2.30
2017-12-12T23:24:58.488Z,2.30
2017-12-12T23:27:25.984Z,2.20
2017-12-12T23:29:53.456Z,2.20
2017-12-12T23:32:21.724Z,2.20
2017-12-12T23:34:49.204Z,2.20
2017-12-12T23:37:16.694Z,2.30
2017-12-12T23:39:44.943Z,2.20
2017-12-12T23:42:12.436Z,2.20
2017-12-12T23:44:39.928Z,2.20
2017-12-12T23:47:08.196Z,2.30
2017-12-12T23:49:35.683Z,2.30
2017-12-12T23:52:03.951Z,2.30
2017-12-12T23:54:32.199Z,2.30
2017-12-12T23:56:59.687Z,2.30
2017-12-12T23:59:27.168Z,2.30
